Date,TemperatureHighF,TemperatureAvgF,TemperatureLowF,DewpointHighF,DewpointAvgF,DewpointLowF,HumidityHigh,HumidityAvg,HumidityLow,PressureMaxIn,PressureMinIn,WindSpeedMaxMPH,WindSpeedAvgMPH,GustSpeedMaxMPH,PrecipitationSumIn
2013-1-1,59,40,33,50,37,32,98,91,63,30.36,30.21,6,0,6,0.00
2013-1-2,60,39,32,45,35,31,97,88,53,30.21,30.06,4,1,4,0.00
2013-1-3,55,44,34,48,39,32,96,85,54,30.27,30.03,12,2,12,0.00
2013-1-4,57,47,41,53,45,39,98,94,77,30.30,30.15,5,0,5,0.00
2013-1-5,49,45,41,48,44,40,98,96,91,30.18,30.09,4,0,4,0.00
2013-1-6,51,47,42,50,44,42,98,92,81,30.24,30.15,5,0,5,0.00
2013-1-7,51,49,46,51,49,44,98,97,94,30.27,30.15,3,1,3,0.00
2013-1-8,54,51,49,53,49,45,98,94,86,30.27,29.97,12,2,12,0.00
2013-1-9,50,45,37,48,40,32,97,85,60,30.03,29.85,20,3,20,0.00
2013-1-10,46,40,35,44,36,29,98,86,54,30.21,30.03,20,5,20,0.00
2013-1-11,52,40,34,42,35,30,95,82,57,30.27,30.15,10,2,10,0.00
2013-1-12,48,36,30,37,32,25,96,85,59,30.36,30.24,6,1,6,0.00
2013-1-13,46,34,28,32,26,23,86,74,47,30.44,30.33,6,1,8,0.00
2013-1-14,49,35,28,33,27,23,87,75,49,30.53,30.41,8,1,8,0.00
2013-1-15,53,37,30,38,30,26,91,77,48,30.56,30.50,10,1,10,0.00
2013-1-16,59,38,29,42,31,25,91,77,46,30.50,30.33,7,0,7,0.00
2013-1-17,62,41,32,41,33,28,88,74,42,30.33,30.15,6,1,6,0.00
2013-1-18,45,38,30,42,35,28,94,90,85,30.24,30.15,5,1,5,0.00
2013-1-19,43,37,29,41,36,28,98,96,93,30.27,30.18,5,1,5,0.00
2013-1-20,54,38,30,48,36,30,98,93,54,30.27,30.15,4,1,4,0.00
2013-1-21,62,40,31,46,35,30,98,84,41,30.18,30.03,5,1,5,0.00
2013-1-22,62,45,34,42,35,31,92,71,36,30.06,29.88,6,2,6,0.00
2013-1-23,47,44,38,46,42,37,98,91,76,30.18,29.82,10,0,10,0.00
2013-1-24,55,44,36,54,44,36,98,98,97,30.18,30.09,6,1,6,0.00
2013-1-25,52,48,43,51,48,43,98,98,98,30.15,30.03,8,1,8,0.00
2013-1-26,54,44,41,49,42,38,98,93,65,30.15,30.00,7,1,7,0.00
2013-1-27,47,42,38,46,42,38,98,98,95,30.24,30.15,11,1,11,0.00
2013-1-28,49,46,44,47,45,43,98,97,83,30.39,30.18,13,3,13,0.00
2013-1-29,49,45,42,48,45,42,98,98,97,30.56,30.39,12,1,12,0.00
2013-1-30,51,44,39,50,43,39,98,98,98,30.56,30.47,6,1,6,0.00
2013-1-31,57,44,37,53,42,36,98,95,79,30.47,30.33,9,1,9,0.00
2013-2-1,63,44,34,50,40,33,98,88,53,30.33,30.12,8,1,8,0.00
2013-2-2,55,45,38,50,42,37,98,90,73,30.36,30.21,5,1,5,0.00
2013-2-3,52,48,42,46,44,40,95,87,71,30.36,30.24,4,0,4,0.00
2013-2-4,51,44,37,48,41,36,98,89,77,30.24,30.03,6,1,6,0.00
2013-2-5,54,48,45,48,44,39,96,85,71,30.15,29.97,9,2,9,0.00
2013-2-6,51,46,40,49,43,38,98,89,68,30.15,29.91,6,2,6,0.00
2013-2-7,43,39,35,42,38,35,98,98,98,30.12,29.97,7,1,7,0.00
2013-2-8,51,40,32,44,36,32,98,88,65,30.27,30.12,15,2,15,0.00
2013-2-9,50,42,34,42,37,31,95,84,58,30.33,30.27,6,1,6,0.00
2013-2-10,50,46,42,44,40,34,95,79,55,30.33,30.27,6,1,6,0.00
2013-2-11,53,46,43,43,37,32,87,71,52,30.41,30.30,11,2,11,0.00
2013-2-12,54,48,46,50,46,43,96,92,80,30.50,30.41,6,1,6,0.00
2013-2-13,55,48,44,49,46,44,97,92,71,30.50,30.44,6,1,6,0.00
2013-2-14,57,46,38,48,43,37,97,88,60,30.50,30.39,15,2,15,0.00
2013-2-15,62,48,40,50,44,38,97,86,60,30.39,30.18,7,1,7,0.00
2013-2-16,54,48,46,46,43,40,93,84,65,30.33,30.27,11,2,11,0.00
2013-2-17,52,44,36,41,36,30,93,75,47,30.30,30.06,13,2,13,0.00
2013-2-18,52,41,35,42,36,30,94,82,59,30.06,29.74,8,1,8,0.00
2013-2-19,50,42,36,42,37,34,98,84,60,30.03,29.65,9,2,9,0.00
2013-2-20,49,42,37,45,39,34,97,87,66,30.15,30.03,10,1,10,0.00
2013-2-21,49,44,39,45,40,36,96,85,71,30.27,30.15,6,1,6,0.00
2013-2-22,49,46,43,46,44,34,98,92,67,30.24,30.03,15,2,15,0.00
2013-2-23,52,43,38,42,36,31,94,77,51,30.47,30.18,14,3,14,0.00
2013-2-24,52,42,32,44,36,31,96,80,46,30.44,30.18,8,2,8,0.00
2013-2-25,51,45,36,46,37,30,98,73,50,30.41,30.15,12,2,12,0.00
2013-2-26,52,40,32,42,34,30,97,80,47,30.39,30.27,10,1,10,0.00
2013-2-27,55,48,42,51,42,37,97,81,52,30.30,30.21,8,1,8,0.00
2013-2-28,54,52,51,54,51,50,98,98,96,30.47,30.21,12,2,12,0.00
2013-3-1,58,51,47,56,50,46,98,95,77,30.47,30.30,6,1,6,0.00
2013-3-2,54,50,46,51,48,45,98,94,82,30.30,30.21,11,1,11,0.00
2013-3-3,53,44,36,45,36,31,96,76,47,30.27,30.15,16,3,16,0.00
2013-3-4,58,42,32,43,35,28,89,76,46,30.15,29.85,8,1,8,0.00
2013-3-5,45,43,42,44,42,37,98,95,80,29.85,29.56,7,1,7,0.00
2013-3-6,51,44,41,50,43,40,98,97,89,29.94,29.53,7,1,7,0.00
2013-3-7,56,43,35,46,38,32,98,83,46,30.00,29.94,10,1,10,0.00
2013-3-8,54,42,32,43,37,31,98,85,55,30.21,29.97,14,3,14,0.00
2013-3-9,58,45,36,45,40,34,93,83,54,30.47,30.21,12,2,12,0.00
2013-3-10,57,45,34,46,40,34,98,84,51,30.47,30.39,10,1,10,0.00
2013-3-11,55,50,48,52,48,46,98,94,75,30.41,30.24,8,2,8,0.00
2013-3-12,54,49,46,53,47,45,98,95,83,30.24,30.18,8,1,8,0.00
2013-3-13,52,48,47,50,47,46,98,93,83,30.24,30.09,7,1,7,0.00
2013-3-14,61,51,46,47,45,42,97,81,54,30.21,30.06,10,1,10,0.00
2013-3-15,56,51,48,50,48,45,97,88,78,30.24,30.18,7,1,7,0.00
2013-3-16,52,48,45,49,47,41,98,94,85,30.24,30.12,14,1,14,0.00
2013-3-17,53,44,36,42,34,30,90,68,47,30.33,30.21,10,3,10,0.00
2013-3-18,54,43,32,43,36,30,94,78,54,30.27,30.03,15,2,15,0.00
2013-3-19,59,50,44,51,43,32,97,80,44,30.03,29.68,10,1,10,0.00
2013-3-20,54,49,43,52,43,31,98,80,59,30.24,29.62,15,4,15,0.00
2013-3-21,50,43,38,43,36,30,93,75,52,30.36,30.24,10,2,10,0.00
2013-3-22,49,42,36,42,34,28,93,74,50,30.39,30.33,14,2,14,0.00
2013-3-23,50,41,32,37,31,27,89,69,49,30.36,30.18,13,2,13,0.00
2013-3-24,52,44,36,39,34,30,87,70,48,30.21,30.03,9,2,9,0.00
2013-3-25,52,45,37,42,38,33,89,78,64,30.03,29.94,8,1,8,0.00
2013-3-26,55,49,45,47,43,41,89,80,66,30.00,29.91,8,2,8,0.00
2013-3-27,62,52,46,51,46,42,91,81,55,29.94,29.85,8,1,8,0.00
2013-3-28,58,52,49,51,48,46,93,86,73,30.09,29.94,6,1,6,0.00
2013-3-29,59,53,47,54,49,44,95,85,66,30.12,30.06,9,2,9,0.00
2013-3-30,63,53,42,55,46,40,97,81,55,30.06,29.91,7,1,7,0.00
2013-3-31,59,54,50,52,50,47,91,84,74,30.03,29.91,4,0,4,0.00
2013-4-1,58,53,50,52,49,47,95,88,74,30.15,30.00,6,0,6,0.00
2013-4-2,54,50,49,49,47,46,95,90,77,30.21,30.15,8,2,8,0.00
2013-4-3,54,50,46,51,47,45,96,91,81,30.15,29.91,6,1,6,0.00
2013-4-4,56,53,52,55,53,51,98,98,98,29.88,29.68,8,3,8,0.00
2013-4-5,56,53,51,55,52,50,98,96,85,29.97,29.82,12,2,12,0.00
2013-4-6,56,52,50,52,50,47,98,93,78,30.03,29.71,15,2,15,0.00
2013-4-7,53,48,42,52,45,40,98,92,65,30.00,29.74,19,3,19,0.00
2013-4-8,54,47,41,48,42,36,98,82,58,30.27,30.00,13,3,13,0.00
2013-4-9,58,49,41,47,42,37,93,78,56,30.30,30.21,9,1,9,0.00
2013-4-10,55,49,42,53,47,40,98,92,82,30.30,30.21,10,2,10,0.00
2013-4-11,54,47,39,46,41,37,95,80,56,30.30,30.12,15,3,15,0.00
2013-4-12,54,46,37,46,41,35,98,82,62,30.12,29.91,13,1,13,0.00
2013-4-13,52,47,40,46,36,30,96,67,47,30.12,30.00,12,3,12,0.00
2013-4-14,51,44,39,43,37,33,92,78,62,30.12,29.91,10,2,10,0.00
2013-4-15,51,45,40,44,38,34,94,77,53,30.15,29.94,12,3,12,0.00
2013-4-16,53,47,40,46,38,36,95,73,54,30.36,30.15,12,3,12,0.00
2013-4-17,54,50,45,43,41,38,83,72,57,30.47,30.36,12,3,12,0.00
2013-4-18,56,51,48,47,42,37,89,73,54,30.44,30.33,12,4,12,0.00
2013-4-19,54,51,49,53,50,47,98,96,89,30.33,30.24,7,1,7,0.00
2013-4-20,55,51,48,52,46,41,98,85,64,30.33,30.24,14,4,14,0.00
2013-4-21,56,51,47,46,42,40,86,72,60,30.27,30.21,8,3,8,0.00
2013-4-22,58,52,45,46,43,39,87,72,53,30.27,30.15,14,4,14,0.00
2013-4-23,57,49,37,45,39,33,90,70,41,30.21,30.09,15,3,15,0.00
2013-4-24,68,48,38,48,40,32,93,79,26,30.12,29.97,10,1,10,0.00
2013-4-25,57,52,43,48,47,39,95,81,70,30.15,29.97,15,5,15,0.00
2013-4-26,53,49,45,51,46,43,98,92,82,30.27,30.15,10,2,10,0.00
2013-4-27,55,49,45,48,45,43,97,86,69,30.33,30.24,10,3,10,0.00
2013-4-28,57,52,49,50,47,45,92,84,72,30.30,30.18,8,3,8,0.00
2013-4-29,55,51,46,52,44,34,98,77,51,30.21,30.15,14,4,14,0.00
2013-4-30,53,47,38,38,34,30,78,61,46,30.36,30.21,15,4,15,0.00
2013-5-1,56,48,37,43,37,30,83,65,53,30.39,30.30,13,3,13,0.00
2013-5-2,61,52,40,47,41,36,93,69,45,30.33,30.18,14,4,14,0.00
2013-5-3,58,51,46,48,45,42,94,79,61,30.27,30.03,17,5,17,0.00
2013-5-4,68,56,41,52,42,36,96,64,36,30.03,29.68,12,2,12,0.00
2013-5-5,80,65,55,44,37,32,63,38,20,29.79,29.56,10,3,10,0.00
2013-5-6,66,56,50,51,46,41,88,71,45,29.94,29.79,8,2,8,0.00
2013-5-7,58,54,51,50,48,46,91,81,69,30.06,29.91,6,1,6,0.00
2013-5-8,59,55,52,49,46,44,82,74,62,30.15,30.03,10,2,10,0.00
2013-5-9,56,52,50,50,48,46,93,85,76,30.18,30.09,13,4,13,0.00
2013-5-10,56,52,50,50,48,46,95,86,73,30.24,30.18,6,1,6,0.00
2013-5-11,64,56,46,53,49,45,95,80,58,30.24,30.03,7,1,7,0.00
2013-5-12,66,59,55,56,52,49,91,77,59,30.15,30.06,8,2,8,0.00
2013-5-13,65,57,50,55,52,46,95,85,60,30.18,30.06,10,1,10,0.00
2013-5-14,59,53,47,51,46,43,94,78,57,30.18,30.09,18,3,18,0.00
2013-5-15,64,55,47,52,45,39,92,72,44,30.12,29.97,8,1,8,0.00
2013-5-16,64,56,52,54,49,45,93,78,56,29.97,29.94,6,1,6,0.00
2013-5-17,62,55,49,53,48,43,93,78,55,30.09,29.97,7,2,7,0.00
2013-5-18,59,53,48,52,48,44,96,84,64,30.30,30.09,7,2,7,0.00
2013-5-19,60,56,52,52,46,42,93,72,56,30.39,30.27,13,5,13,0.00
2013-5-20,58,53,47,50,46,44,94,79,63,30.30,29.97,15,3,15,0.00
2013-5-21,56,50,44,50,44,34,98,82,49,30.06,29.82,18,3,18,0.00
2013-5-22,50,46,43,49,45,37,98,95,77,30.06,30.03,8,1,8,0.00
2013-5-23,46,46,45,46,45,44,98,98,98,30.03,30.03,6,1,6,0.00
2013-6-5,58,55,51,55,53,50,98,94,84,30.09,30.03,14,5,14,0.00
2013-6-6,58,54,51,55,51,49,98,92,74,30.09,30.03,14,5,14,0.00
2013-6-7,63,55,52,54,52,45,98,88,54,30.12,30.06,12,4,12,0.00
2013-6-8,60,54,50,54,49,44,98,83,57,30.12,30.03,17,5,17,0.00
2013-6-9,60,54,50,49,46,41,95,77,55,30.03,29.94,19,6,19,0.00
2013-6-10,61,53,48,47,45,41,90,75,56,30.00,29.91,14,5,14,0.00
2013-6-11,63,55,49,51,47,43,93,76,51,30.15,30.00,10,2,10,0.00
2013-6-12,64,53,45,53,46,42,94,78,49,30.21,30.12,8,2,10,0.00
2013-6-13,64,55,50,53,48,45,94,78,51,30.30,30.18,6,2,6,0.00
2013-6-14,62,54,44,52,47,42,95,79,58,30.27,29.94,13,3,13,0.00
2013-6-15,60,56,51,56,51,46,95,84,73,30.03,29.91,6,1,6,0.00
2013-6-16,63,55,47,54,49,45,95,80,63,30.12,30.03,8,1,8,0.00
2013-6-17,64,56,48,54,50,43,95,82,51,30.09,30.00,7,2,7,0.00
2013-6-18,65,57,50,54,50,46,94,78,53,30.00,29.94,8,2,8,0.00
2013-6-19,64,57,52,56,50,46,96,80,53,30.12,29.94,7,2,7,0.00
2013-6-20,66,58,53,55,50,46,94,77,51,30.12,30.03,10,2,10,0.00
2013-6-21,67,57,49,55,49,46,94,76,51,30.12,30.06,13,3,13,0.00
2013-6-22,70,59,50,58,51,46,94,76,45,30.09,29.85,8,2,8,0.00
2013-6-23,67,61,56,64,58,54,96,90,71,29.85,29.65,6,1,6,0.00
2013-6-24,63,58,54,58,55,51,97,90,66,29.74,29.65,10,2,10,0.00
2013-6-25,67,60,56,61,56,52,98,87,62,29.82,29.68,7,1,7,0.00
2013-6-26,71,64,59,63,58,55,97,82,62,29.97,29.82,6,1,227,0.00
2013-6-27,69,63,57,63,58,54,95,84,64,30.15,29.97,8,1,8,0.00
2013-6-28,74,63,54,64,58,53,97,85,57,30.15,30.06,7,1,7,0.00
2013-6-29,71,64,56,62,57,54,96,81,58,30.12,29.94,11,2,11,0.00
2013-6-30,69,63,59,62,59,56,97,87,66,30.00,29.91,8,2,8,0.00
2013-7-1,66,62,58,61,59,57,98,90,77,30.03,29.94,13,4,13,0.00
2013-7-2,66,61,58,62,57,54,98,89,68,30.09,30.03,14,4,14,0.00
2013-7-3,66,60,56,58,53,49,95,80,56,30.09,30.06,20,5,20,0.00
2013-7-4,67,59,54,54,51,46,91,75,50,30.12,30.00,15,5,15,0.00
2013-7-5,65,59,53,54,50,46,91,74,54,30.03,29.91,18,4,18,0.00
2013-7-6,64,57,51,54,50,48,91,76,60,29.94,29.88,15,4,19,0.00
2013-7-7,65,59,54,54,51,48,91,76,56,29.97,29.88,15,5,15,0.00
2013-7-8,65,58,52,53,50,46,91,74,55,30.03,29.97,16,4,16,0.00
2013-7-9,58,55,52,56,53,51,98,95,87,30.09,30.03,11,3,11,0.00
2013-7-10,61,56,51,56,50,43,98,83,53,30.09,29.94,17,5,17,0.00
2013-7-11,62,55,49,51,46,42,92,73,49,30.03,29.94,14,3,14,0.00
2013-7-12,63,55,49,52,47,45,93,77,56,30.06,29.97,12,4,12,0.00
2013-7-13,61,54,48,53,47,43,95,77,55,30.06,30.00,14,4,14,0.00
2013-7-14,59,53,50,51,49,47,96,85,66,30.03,29.97,13,4,13,0.00
2013-7-15,60,55,51,54,50,48,97,83,69,30.00,29.79,17,5,17,0.00
2013-7-16,60,54,48,57,51,47,96,88,80,30.03,29.79,7,1,7,0.00
2013-7-17,64,58,52,53,49,44,89,74,52,30.15,30.03,10,2,10,0.00
2013-7-18,62,55,48,53,47,43,93,75,53,30.15,30.06,15,3,15,0.00
2013-7-19,61,56,53,51,49,46,92,79,60,30.12,30.03,15,5,15,0.00
2013-7-20,61,56,52,52,50,46,97,81,60,30.06,29.94,15,5,15,0.00
2013-7-21,62,55,50,55,52,48,98,89,64,29.97,29.88,17,5,17,0.00
2013-7-22,60,55,50,57,51,46,98,88,61,29.97,29.91,15,5,15,0.00
2013-7-23,55,51,49,54,50,48,98,97,93,30.03,29.97,12,4,12,0.00
2013-7-24,51,50,48,51,49,48,98,98,98,30.03,30.00,9,3,9,0.00
2013-7-25,58,53,49,54,51,48,98,93,77,30.03,29.97,14,6,14,0.00
2013-7-26,59,53,48,53,49,45,98,86,61,30.15,30.03,15,5,15,0.00
2013-7-27,61,55,50,54,49,46,98,83,61,30.15,30.00,14,5,14,0.00
2013-7-28,61,55,50,53,49,46,94,80,60,30.03,29.91,13,4,13,0.00
2013-7-29,61,54,48,53,50,47,98,84,63,30.03,29.94,12,3,12,0.00
2013-7-30,63,58,54,55,52,49,92,82,65,30.12,30.03,10,2,10,0.00
2013-7-31,60,57,55,57,55,52,95,92,85,30.12,30.06,4,1,4,0.00
2013-8-1,66,60,57,59,54,49,97,83,57,30.12,30.06,7,1,8,0.00
2013-8-2,64,59,54,56,53,49,97,83,61,30.12,30.03,12,3,12,0.00
2013-8-3,63,56,52,60,54,51,98,93,73,30.06,29.94,13,3,13,0.00
2013-8-4,58,55,52,57,54,52,98,97,94,30.00,29.94,12,4,12,0.00
2013-8-5,58,54,52,56,53,50,98,96,79,30.00,29.94,14,4,14,0.00
2013-8-6,57,53,50,53,51,48,98,94,77,30.00,29.94,8,2,8,0.00
2013-8-7,60,56,52,57,54,52,98,95,89,30.09,30.00,4,0,4,0.00
2013-8-8,60,56,54,57,55,52,98,94,77,30.06,29.94,9,2,9,0.00
2013-8-9,59,56,53,58,55,52,98,98,95,29.97,29.88,12,2,12,0.00
2013-8-10,64,58,54,61,56,52,98,94,71,30.03,29.94,6,1,6,0.00
2013-8-11,64,59,55,58,54,50,97,85,64,30.03,30.00,8,2,8,0.00
2013-8-12,62,57,51,58,53,50,98,89,75,30.03,30.00,9,2,9,0.00
2013-8-13,66,56,48,56,50,45,98,80,54,30.03,29.94,9,2,9,0.00
2013-8-14,74,62,52,59,52,48,95,73,42,29.97,29.91,5,1,6,0.00
2013-8-19,63,60,59,62,60,58,98,98,98,30.09,30.06,10,4,10,0.00
2013-8-26,55,55,55,54,54,54,98,98,98,29.91,29.91,0,0,0,0.00
2013-8-27,72,66,62,60,57,54,86,74,60,29.82,29.76,4,1,4,0.00
2013-8-28,71,64,59,63,58,55,94,79,61,29.85,29.79,0,0,0,0.00
2013-8-29,73,65,61,67,62,57,98,90,71,30.06,29.79,13,0,13,0.00
2013-8-30,66,63,60,64,62,58,97,95,88,30.09,30.03,8,1,8,0.00
2013-8-31,68,60,57,64,58,55,98,93,83,30.03,29.88,6,0,6,0.00
2013-9-1,77,63,56,64,57,50,97,82,48,29.94,29.71,7,1,7,0.00
2013-9-2,80,65,58,62,57,50,94,77,51,29.91,29.79,7,1,7,0.00
2013-9-3,71,63,56,58,54,50,91,73,56,29.97,29.91,6,0,6,0.00
2013-9-4,68,62,58,62,57,54,92,83,74,30.03,29.94,8,1,8,0.00
2013-9-5,65,61,60,64,60,57,98,95,88,30.12,29.97,4,0,4,0.00
2013-9-6,67,63,60,65,61,58,98,93,79,30.15,30.00,10,2,10,0.00
2013-9-7,68,60,53,65,59,52,98,95,91,30.03,29.91,13,3,13,0.00
2013-9-8,64,60,57,63,59,57,98,98,97,30.00,29.91,10,3,10,0.00
2013-9-9,60,57,55,59,57,55,98,98,98,29.97,29.85,13,4,13,0.00
2013-9-10,59,56,54,58,56,54,98,98,98,29.85,29.68,9,3,9,0.00
2013-9-11,66,60,56,65,60,56,98,98,98,29.97,29.82,6,0,6,0.00
2013-9-12,65,61,59,64,61,59,98,98,98,30.00,29.94,5,1,5,0.00
2013-9-13,64,61,57,62,60,57,98,97,93,29.97,29.82,8,2,8,0.00
2013-9-14,61,59,58,60,59,57,98,98,97,29.85,29.76,4,1,4,0.00
2013-9-15,63,60,58,61,59,58,98,97,94,29.88,29.74,3,0,3,0.00
2013-9-16,79,61,58,68,59,57,98,95,69,29.94,29.85,0,0,0,0.00
2013-9-17,72,59,55,71,59,55,98,98,91,30.03,29.82,0,0,0,0.00
2013-9-18,72,57,53,70,57,52,98,98,96,30.06,29.91,0,0,0,0.00
2013-9-19,72,56,49,68,55,49,98,98,90,29.91,29.76,4,1,4,0.00
2013-9-20,61,56,51,60,55,51,98,97,93,29.76,29.62,2,2,2,0.00
2013-9-21,63,58,55,62,57,54,98,97,96,29.82,29.62,2,1,2,0.00
2013-9-22,61,58,55,60,57,55,98,98,98,29.91,29.74,9,1,9,0.00
2013-9-23,66,59,56,64,59,56,98,98,95,30.00,29.91,0,0,0,0.00
2013-9-24,62,57,52,60,56,51,98,97,90,29.97,29.88,5,0,5,0.00
2013-9-25,57,52,48,57,51,48,98,98,95,30.03,29.88,8,1,8,0.00
2013-9-26,60,52,45,58,51,44,98,97,93,30.15,30.03,11,1,11,0.00
2013-9-27,60,53,46,58,52,45,98,96,86,30.18,29.97,8,1,8,0.00
2013-9-28,61,58,54,61,58,53,98,98,98,29.97,29.62,18,2,18,0.00
2013-9-29,60,57,54,60,56,54,98,98,98,29.76,29.56,15,2,15,0.00
2013-9-30,61,56,52,60,55,52,98,98,98,30.03,29.74,10,1,10,0.00
2013-10-1,66,54,47,65,53,47,98,98,97,30.18,30.00,6,1,6,0.00
2013-10-2,57,49,41,56,48,40,98,98,98,30.18,30.09,7,1,7,0.00
2013-10-3,58,49,42,57,49,42,98,98,98,30.36,30.18,10,2,10,0.00
2013-10-4,66,50,41,62,50,40,98,98,87,30.36,30.24,11,2,11,0.00
2013-10-5,71,52,43,64,50,43,98,96,74,30.27,30.09,5,0,5,0.00
2013-10-6,73,54,47,56,50,44,98,87,44,30.09,30.00,7,1,7,0.00
2013-10-7,65,55,51,58,54,49,98,94,77,30.15,30.03,10,1,10,0.00
2013-10-8,57,52,48,56,51,47,98,97,94,30.18,30.00,12,0,12,0.00
2013-10-9,56,49,42,53,48,41,98,95,89,30.03,29.94,10,1,10,0.00
2013-10-10,60,52,46,55,50,45,98,94,82,30.09,29.94,10,2,10,0.00
2013-10-11,59,52,48,52,48,44,97,86,68,30.12,30.09,13,2,13,0.00
2013-10-12,64,51,47,56,48,44,95,92,72,30.12,30.03,8,1,8,0.00
2013-10-13,67,49,41,52,46,40,95,90,56,30.24,30.12,12,2,12,0.00
2013-10-14,68,50,42,53,46,40,95,87,52,30.27,30.18,10,2,10,0.00
2013-10-15,68,50,41,49,43,38,93,79,48,30.18,30.03,11,1,11,0.00
2013-10-16,56,46,42,50,42,39,89,85,76,30.09,30.03,7,0,7,0.00
2013-10-17,66,53,47,54,50,45,94,90,64,30.15,30.06,10,2,10,0.00
2013-10-18,70,50,43,54,46,41,94,87,55,30.06,30.00,8,1,8,0.00
2013-10-19,67,50,42,55,47,40,94,90,61,30.12,30.03,8,1,8,0.00
2013-10-20,53,50,48,51,49,48,98,97,94,30.09,30.03,10,2,10,0.00
2013-10-21,52,50,47,51,49,47,98,98,98,30.03,29.94,6,0,6,0.00
2013-10-22,53,51,50,52,51,50,98,98,98,30.03,29.97,3,0,3,0.00
2013-10-23,52,50,49,52,50,48,98,98,98,30.00,29.94,6,1,6,0.00
2013-10-24,53,51,50,52,51,49,98,98,98,30.09,29.97,5,1,5,0.00
2013-10-25,54,52,51,53,52,51,98,98,98,30.21,30.09,5,0,5,0.00
2013-10-26,54,50,45,54,49,44,98,98,98,30.21,30.15,11,2,11,0.00
2013-10-27,54,51,45,53,50,44,98,98,98,30.15,29.79,10,1,10,0.00
2013-10-28,60,47,44,59,47,44,98,98,98,29.82,29.71,8,1,8,0.00
2013-10-29,58,46,40,52,45,39,98,97,81,30.03,29.94,5,0,5,0.00
2013-10-30,57,44,37,52,43,36,98,98,78,30.18,30.03,6,0,6,0.00
2013-10-31,58,52,47,56,51,46,98,97,90,30.21,30.15,5,0,5,0.00
2013-11-1,62,51,44,59,50,44,98,98,88,30.21,29.91,6,0,6,0.00
2013-11-2,59,51,47,58,50,46,98,98,98,30.15,29.85,12,2,12,0.00
2013-11-3,52,47,42,52,46,42,98,98,98,30.24,30.15,10,0,10,0.00
2013-11-4,51,47,41,50,46,40,98,98,98,30.18,30.15,6,1,6,0.00
2013-11-5,56,53,51,56,53,50,98,98,98,30.24,30.12,7,1,7,0.00
2013-11-6,58,55,54,58,55,54,98,98,98,30.27,30.12,5,0,5,0.00
2013-11-7,55,53,48,54,52,47,98,98,98,30.18,30.00,9,1,9,0.00
2013-11-8,54,49,43,54,48,42,98,98,98,30.18,30.03,8,1,8,0.00
2013-11-9,54,47,41,53,47,41,98,98,98,30.06,29.97,4,0,4,0.00
2013-11-10,57,50,45,57,49,44,98,98,98,30.03,29.97,6,0,6,0.00
2013-11-11,59,52,46,59,52,45,98,98,98,30.03,29.91,5,1,5,0.00
2013-11-12,60,55,53,59,55,52,98,98,98,30.39,30.00,6,0,6,0.00
2013-11-13,54,50,47,53,49,46,98,96,94,30.41,30.24,9,1,9,0.00
2013-11-14,52,48,42,51,47,41,98,97,96,30.27,30.09,4,0,4,0.00
2013-11-15,51,48,42,51,47,41,98,98,96,30.09,29.76,4,0,4,0.00
2013-11-16,53,50,48,53,50,48,98,98,97,29.91,29.71,8,0,8,0.00
2013-11-17,55,50,48,55,49,47,98,98,97,30.03,29.91,5,0,5,0.00
2013-11-18,54,51,47,54,50,47,98,97,96,30.00,29.76,9,2,9,0.00
2013-11-19,56,52,42,54,50,41,97,95,94,29.94,29.76,11,3,11,0.00
2013-11-20,47,42,38,46,42,38,98,97,96,30.24,29.94,8,2,8,0.00
2013-11-21,47,39,34,40,37,33,98,93,73,30.41,30.24,7,1,7,0.00
2013-11-22,53,41,33,42,37,33,98,85,61,30.41,30.18,8,1,8,0.00
2013-11-23,60,46,36,42,38,35,94,76,47,30.18,29.97,9,1,9,0.00
2013-11-24,55,43,37,44,37,34,92,80,53,30.21,30.03,6,1,6,0.00
2013-11-25,52,42,35,48,39,34,96,92,83,30.27,30.21,5,1,5,0.00
2013-11-26,54,44,37,49,43,36,98,94,83,30.21,30.00,6,1,6,0.00
2013-11-27,55,44,39,49,43,38,98,94,78,30.00,29.85,5,1,5,0.00
2013-11-28,51,44,38,48,42,38,98,95,88,30.15,29.91,7,1,7,0.00
2013-11-29,49,43,35,48,42,35,98,96,91,30.30,30.15,8,2,8,0.00
2013-11-30,50,46,41,48,45,40,98,97,93,30.39,30.30,3,1,3,0.00
2013-12-1,53,52,49,53,51,48,98,98,96,30.36,30.15,8,1,8,0.00
2013-12-2,53,47,38,52,46,38,98,98,97,30.15,30.00,13,3,13,0.00
2013-12-3,44,39,34,44,38,34,98,98,98,30.18,30.06,6,0,6,0.00
2013-12-4,37,33,30,37,33,29,98,98,98,30.27,30.18,6,1,6,0.00
2013-12-5,37,31,27,36,31,26,98,98,98,30.24,30.09,6,0,6,0.00
2013-12-6,44,38,34,44,37,33,98,98,98,30.09,29.79,11,1,11,0.00
2013-12-7,34,31,29,33,30,28,98,98,96,30.30,30.00,8,1,8,0.00
2013-12-9,38,33,28,30,28,23,91,80,71,30.53,30.47,6,1,6,0.00
2013-12-10,42,34,29,36,31,27,92,88,77,30.50,30.30,6,0,6,0.00
2013-12-11,47,36,30,41,33,28,95,91,81,30.30,30.18,4,0,4,0.00
2013-12-12,47,39,32,45,38,30,97,94,89,30.24,30.12,7,1,7,0.00
2013-12-13,51,45,41,50,44,39,98,97,93,30.39,30.24,4,0,4,0.00
2013-12-14,45,41,37,43,39,35,93,92,90,30.47,30.39,2,0,2,0.00
2013-12-15,49,42,37,48,40,35,94,91,88,30.47,30.39,6,0,6,0.00
2013-12-16,50,41,35,48,38,33,94,91,88,30.41,30.15,6,0,6,0.00
2013-12-17,46,41,34,43,38,32,92,90,88,30.24,30.15,7,1,7,0.00
2013-12-18,47,44,41,44,40,38,89,88,87,30.18,30.06,15,2,15,0.00
2013-12-19,42,37,33,39,35,31,93,91,88,30.30,30.15,12,1,12,0.00
2013-12-20,49,42,34,47,39,32,91,89,83,30.24,30.03,8,0,8,0.00
2013-12-21,50,49,47,48,46,43,91,89,87,30.27,30.06,4,0,4,0.00
2013-12-22,53,48,44,50,44,41,92,88,86,30.39,30.27,5,0,5,0.00
2013-12-23,51,48,44,47,44,41,88,87,86,30.50,30.36,6,0,6,0.00
2013-12-24,48,43,37,44,40,34,91,89,87,30.50,30.36,7,1,8,0.00
2013-12-25,47,39,33,44,36,31,92,90,87,30.39,30.27,6,1,6,0.00
2013-12-26,47,40,34,44,37,32,91,90,87,30.30,30.15,4,0,4,0.00
2013-12-27,50,42,38,47,40,35,90,89,87,30.36,30.15,4,0,4,0.00
2013-12-28,47,43,37,43,40,34,91,89,86,30.44,30.33,10,1,10,0.00
2013-12-29,49,40,35,47,38,33,93,90,88,30.39,30.15,5,0,5,0.00
2013-12-30,50,42,38,47,39,35,92,89,87,30.24,30.15,4,0,4,0.00
2013-12-31,50,43,39,46,40,36,88,87,85,30.33,30.24,4,0,4,0.00
2014-1-1,51,43,36,48,39,33,89,87,85,30.27,30.18,4,0,4,0.00
2014-1-2,51,44,40,47,41,36,87,86,84,30.18,30.09,4,0,4,0.00